SKLO2: Skiatook Lake

Data processed at Thu May 23 2019 23:50


All information presented herein is the property of the government of the United States of America and may be revised or deleted at any time without prior notice.
Dissemination of this information without the expressed written consent of the Public Affairs Office, Tulsa District U.S. Army Corps of Engineers is strictly prohibited.
These data are gathered electronically and, as presented, have not undergone any form of quality control. These data are not guaranteed to be valid or correct.
Go to home page.
Go to station list.
Go to home page.

Upstream stations:

Downstream station:
Previous Day
Next Day
Current Day
    
SHEF ID:       SKLO2     Skiatook Lake
STATION TYPE:  RESERVOIR
Flood Pool:  Bottom =   714.00, Top =   729.00

               PRECIP  RIV-FLOW ELEVATION   STORAGE   TW-ELEV    INFLOW   RELEASE  AIR-TEMP  WIND-DIRWIND-SPEED REL-HUMID SOLAR-RAD   VOLTAGE  BAT-LOAD
                   in       cfs        ft     ac-ft        ft       cfs       cfs         F       deg       mph         %      W/m2      volt      volt
              Ccp-Rev  Rev-Regi   Ccp-Rev   Ccp-Rev   Ccp-Rev  Rev-Regi  Rev-Regi   Ccp-Rev   Ccp-Rev   Ccp-Rev   Ccp-Rev   Ccp-Rev   Ccp-Rev   Ccp-Rev
(US/Central)
05/23 00:00      0.00      ----    728.47    492009      ----     32873       273     72.25    141.19      8.13     87.98      0.00     12.71     12.41
05/23 01:00      0.02      ----    728.72    495354      ----     39096      1944     71.80      2.01      7.14     92.69      0.00     12.70     12.41
05/23 02:00      0.06      ----    728.88    497494      ----     31977      3204     69.82     40.40      5.17     97.78      0.00     12.68     12.41
05/23 03:00      0.00      ----    729.12    500739      ----     29756      3494     69.31     38.90      5.39     99.97      0.00     12.67     12.41
05/23 04:00      0.00      ----    729.24    502378      ----     26681      3282     69.46     54.63      5.47    100.06      0.00     12.64     12.41
05/23 05:00      0.00      ----    729.31    503335      ----     26093      2845     69.55     40.46      3.23    100.06      0.00     12.64     12.41
05/23 06:00      0.00      ----    729.45    505247      ----     21000      2323     69.57     80.19      4.22    100.06      0.00     12.63     12.41
05/23 07:00      0.00      ----    729.59    507159      ----     20726      1815     69.40     71.45      3.41    100.06      0.71     12.65     12.33
05/23 08:00      0.00      ----    729.68    508389      ----     20200      1735     69.85     64.93      3.19    100.06     53.28     13.00     12.41
05/23 09:00      0.00      ----    729.80    510028      ----     19443      1762     72.77    142.20      4.50     97.77    212.60     13.68     12.73
05/23 10:00      0.00      ----    729.86    510848      ----     16832      2067     76.86    175.02     12.51     88.15    372.11     13.79     13.37
05/23 11:00      0.00      ----    729.98    512487      ----     16629      2149     78.46    178.66     14.35     82.71    560.49     14.29     13.29
05/23 12:00      0.00      ----    730.04    513314      ----     12485      2152     79.88    180.04     16.71     76.95    815.67     13.52     13.53
05/23 13:00      0.00      ----    730.12    514421      ----     11688      2326     81.01    180.79     17.60     73.12    803.69     13.88     13.44
05/23 14:00      0.00      ----    730.11    514282      ----      7891      2744     81.43    179.82     18.13     71.59    623.26     13.82     13.60
05/23 15:00      0.00      ----    730.14    514698      ----      5734      2905     82.47    177.31     16.66     70.03    858.12     14.17     13.92
05/23 16:00      0.00      ----    730.14    514698      ----      2889      3010     83.41    175.96     15.59     68.23    631.43     13.52     13.68
05/23 17:00      0.00      ----    730.13    514559      ----      2841      3071     83.75    171.58     15.82     66.44    640.62     13.78     13.76
05/23 18:00      0.00      ----    730.12    514421      ----      1397      3103     83.86    172.86     13.76     64.45    417.55     13.48     13.84
05/23 19:00      0.00      ----    730.12    514421      ----      1438      3142     83.10    171.01     13.67     63.06    218.66     13.50     12.97
05/23 20:00      0.00      ----    730.09    514006      ----      1799      3155     82.44    173.12     12.72     63.61    102.87     13.01     12.97
05/23 21:00      0.00      ----    730.09    514006      ----      2153      3171     81.00    169.91      6.68     66.31      1.84     12.77     12.73
05/23 22:00      0.00      ----    730.09    514006      ----      2664      3178     79.68    163.13      4.18     69.09      0.00     12.75     12.49
05/23 23:00      0.00      ----    730.09    514006      ----      3177      3187     78.49    145.53      4.47     73.75      0.00     12.73     12.49